createdAt,value
2023-10-26T00:02:13.296Z,77.84
2023-10-26T00:04:43.416Z,80.04
2023-10-26T00:07:12.096Z,76.44
2023-10-26T00:09:40.167Z,76.89
2023-10-26T00:12:09.243Z,77.10
2023-10-26T00:14:37.554Z,79.54
2023-10-26T00:17:05.905Z,76.47
2023-10-26T00:19:36.553Z,78.07
2023-10-26T00:22:06.802Z,79.73
2023-10-26T00:24:36.231Z,79.47
2023-10-26T00:27:04.821Z,79.59
2023-10-26T00:29:33.160Z,77.55
2023-10-26T00:32:01.377Z,78.40
2023-10-26T00:34:29.391Z,80.47
2023-10-26T00:36:57.420Z,77.25
2023-10-26T00:39:27.150Z,81.02
2023-10-26T00:41:56.201Z,81.21
2023-10-26T00:44:25.256Z,77.74
2023-10-26T00:46:56.392Z,78.92
2023-10-26T00:49:24.858Z,80.64
2023-10-26T00:51:54.276Z,79.96
2023-10-26T00:54:24.198Z,82.49
2023-10-26T00:56:54.921Z,79.35
2023-10-26T00:59:23.504Z,80.49
2023-10-26T01:01:53.214Z,80.50
2023-10-26T01:04:21.492Z,80.40
2023-10-26T01:06:50.143Z,78.91
2023-10-26T01:09:36.695Z,78.44
2023-10-26T01:12:07.325Z,78.75
2023-10-26T01:14:36.504Z,80.81
2023-10-26T01:17:05.370Z,80.07
2023-10-26T01:19:41.391Z,80.67
2023-10-26T01:22:11.247Z,80.45
2023-10-26T01:24:39.964Z,81.54
2023-10-26T01:27:08.498Z,79.92
2023-10-26T01:29:36.622Z,78.74
2023-10-26T01:32:05.330Z,79.36
2023-10-26T01:34:33.952Z,78.39
2023-10-26T01:37:05.150Z,81.79
2023-10-26T01:39:34.948Z,82.20
2023-10-26T01:42:03.579Z,79.09
2023-10-26T01:44:32.312Z,79.34
2023-10-26T01:47:00.656Z,81.80
2023-10-26T01:49:29.197Z,80.34
2023-10-26T01:51:57.501Z,80.32
2023-10-26T01:54:25.821Z,81.68
2023-10-26T01:56:55.657Z,80.24
2023-10-26T01:59:24.053Z,81.54
2023-10-26T02:01:52.153Z,79.07
2023-10-26T02:04:20.198Z,80.56
2023-10-26T02:06:48.633Z,82.30
2023-10-26T02:09:16.914Z,79.97
2023-10-26T02:11:45.241Z,79.41
2023-10-26T02:14:14.910Z,80.73
2023-10-26T02:16:43.269Z,79.89
2023-10-26T02:19:11.390Z,80.55
2023-10-26T02:21:39.724Z,80.14
2023-10-26T02:24:08.687Z,82.17
2023-10-26T02:26:36.967Z,82.98
2023-10-26T02:29:05.318Z,80.81
2023-10-26T02:31:34.737Z,81.33
2023-10-26T02:34:02.874Z,79.36
2023-10-26T02:36:31.272Z,79.59
2023-10-26T02:38:59.449Z,79.29
2023-10-26T02:41:27.799Z,78.88
2023-10-26T02:43:56.077Z,79.21
2023-10-26T02:46:24.785Z,79.23
2023-10-26T02:48:54.461Z,80.69
2023-10-26T02:51:22.812Z,80.15
2023-10-26T02:53:51.196Z,79.06
2023-10-26T02:56:19.533Z,79.89
2023-10-26T02:58:47.869Z,79.52
2023-10-26T03:01:16.176Z,78.66
2023-10-26T03:03:44.755Z,82.45
2023-10-26T03:06:14.246Z,81.19
2023-10-26T03:08:42.659Z,78.92
2023-10-26T03:11:10.941Z,78.10
2023-10-26T03:13:39.114Z,79.70
2023-10-26T03:16:08.894Z,79.14
2023-10-26T03:18:38.486Z,78.58
2023-10-26T03:21:06.910Z,80.00
2023-10-26T03:23:36.248Z,79.98
2023-10-26T03:26:04.709Z,80.44
2023-10-26T03:28:32.870Z,79.42
2023-10-26T03:31:01.224Z,79.88
2023-10-26T03:33:29.525Z,80.70
2023-10-26T03:35:57.978Z,81.92
2023-10-26T03:38:26.261Z,81.78
2023-10-26T03:40:55.754Z,81.68
2023-10-26T03:43:23.821Z,80.03
2023-10-26T03:45:52.209Z,79.82
2023-10-26T03:48:20.390Z,81.94
2023-10-26T03:50:48.502Z,83.07
2023-10-26T03:53:16.965Z,80.80
2023-10-26T03:55:45.346Z,79.81
2023-10-26T03:58:16.619Z,81.90
2023-10-26T04:00:45.047Z,80.01
2023-10-26T04:03:13.395Z,81.38
2023-10-26T04:05:41.625Z,82.33
2023-10-26T04:08:10.965Z,80.24
2023-10-26T04:10:39.205Z,81.77
2023-10-26T04:13:07.473Z,80.68
2023-10-26T04:15:36.899Z,80.84
2023-10-26T04:18:05.740Z,80.93
2023-10-26T04:20:34.229Z,82.44
2023-10-26T04:23:05.096Z,79.47
2023-10-26T04:25:50.575Z,79.66
2023-10-26T04:28:21.700Z,80.89
2023-10-26T04:30:54.269Z,80.83
2023-10-26T04:33:22.398Z,82.68
2023-10-26T04:35:51.216Z,79.34
2023-10-26T04:38:19.635Z,79.86
2023-10-26T04:40:48.311Z,81.20
2023-10-26T04:43:16.492Z,79.85
2023-10-26T04:45:44.578Z,81.97
2023-10-26T04:48:14.459Z,79.50
2023-10-26T04:50:42.765Z,82.51
2023-10-26T04:53:11.763Z,79.79
2023-10-26T04:55:40.017Z,79.48
2023-10-26T04:58:09.189Z,79.87
2023-10-26T05:00:37.719Z,82.12
2023-10-26T05:03:05.890Z,79.89
2023-10-26T05:05:36.028Z,80.29
2023-10-26T05:08:05.098Z,82.00
2023-10-26T05:10:33.430Z,82.81
2023-10-26T05:13:01.660Z,80.03
2023-10-26T05:15:29.922Z,79.52
2023-10-26T05:17:58.048Z,81.09
2023-10-26T05:20:26.563Z,80.35
2023-10-26T05:22:56.312Z,82.83
2023-10-26T05:25:24.363Z,80.05
2023-10-26T05:27:54.477Z,81.21
2023-10-26T05:30:23.355Z,80.77
2023-10-26T05:32:51.427Z,80.15
2023-10-26T05:35:20.228Z,81.66
2023-10-26T05:37:48.249Z,82.00
2023-10-26T05:40:18.081Z,81.04
2023-10-26T05:42:46.473Z,82.51
2023-10-26T05:45:14.765Z,81.67
2023-10-26T05:47:46.711Z,80.37
2023-10-26T05:50:15.133Z,79.80
2023-10-26T05:52:43.385Z,79.65
2023-10-26T05:55:11.412Z,82.30
2023-10-26T05:57:40.869Z,81.89
2023-10-26T06:00:10.998Z,79.55
2023-10-26T06:02:39.179Z,80.40
2023-10-26T06:05:07.944Z,82.27
2023-10-26T06:07:36.384Z,81.52
2023-10-26T06:10:07.024Z,80.10
2023-10-26T06:12:35.416Z,80.59
2023-10-26T06:15:05.595Z,79.33
2023-10-26T06:17:33.771Z,81.81
2023-10-26T06:20:02.115Z,80.49
2023-10-26T06:22:30.387Z,80.59
2023-10-26T06:24:58.661Z,79.48
2023-10-26T06:27:26.761Z,79.13
2023-10-26T06:29:55.071Z,80.68
2023-10-26T06:32:24.806Z,79.74
2023-10-26T06:34:53.325Z,80.98
2023-10-26T06:37:21.691Z,80.54
2023-10-26T06:39:49.849Z,80.58
2023-10-26T06:42:17.966Z,80.80
2023-10-26T06:44:46.365Z,79.81
2023-10-26T06:47:15.395Z,80.08
2023-10-26T06:49:45.226Z,80.10
2023-10-26T06:52:12.538Z,79.54
2023-10-26T06:54:40.957Z,80.02
2023-10-26T06:57:09.036Z,79.76
2023-10-26T06:59:37.038Z,81.19
2023-10-26T07:02:10.207Z,80.31
2023-10-26T07:04:41.157Z,80.65
2023-10-26T07:07:10.627Z,80.92
2023-10-26T07:09:39.214Z,81.55
2023-10-26T07:12:08.699Z,81.08
2023-10-26T07:14:38.082Z,79.83
2023-10-26T07:17:06.485Z,80.70
2023-10-26T07:19:34.794Z,78.91
2023-10-26T07:22:03.940Z,80.63
2023-10-26T07:24:35.374Z,79.12
2023-10-26T07:27:04.405Z,80.08
2023-10-26T07:29:32.641Z,80.10
2023-10-26T07:32:01.569Z,78.24
2023-10-26T07:34:29.907Z,79.90
2023-10-26T07:36:58.588Z,77.98
2023-10-26T07:42:16.675Z,78.81
2023-10-26T07:44:46.249Z,80.62
2023-10-26T07:47:14.914Z,77.34
2023-10-26T07:49:43.598Z,77.41
2023-10-26T07:52:12.304Z,77.74
2023-10-26T07:54:40.580Z,77.79
2023-10-26T07:57:09.053Z,77.99
2023-10-26T07:59:38.537Z,77.94
2023-10-26T08:02:06.922Z,79.63
2023-10-26T08:04:35.456Z,77.14
2023-10-26T08:07:04.000Z,76.29
2023-10-26T08:09:34.041Z,76.77
2023-10-26T08:12:02.469Z,77.43
2023-10-26T08:16:04.410Z,76.48
2023-10-26T08:17:22.041Z,77.92
2023-10-26T08:19:53.198Z,78.10
2023-10-26T08:22:22.061Z,79.23
2023-10-26T08:24:50.437Z,76.57
2023-10-26T08:27:19.340Z,77.58
2023-10-26T08:29:47.678Z,76.34
2023-10-26T08:32:16.486Z,78.54
2023-10-26T08:34:47.443Z,77.60
2023-10-26T08:37:16.072Z,77.08
2023-10-26T08:39:44.665Z,79.43
2023-10-26T08:42:14.481Z,78.03
2023-10-26T08:44:44.872Z,78.56
2023-10-26T08:47:15.996Z,75.97
2023-10-26T08:49:55.955Z,78.97
2023-10-26T08:52:28.946Z,76.26
2023-10-26T08:54:57.461Z,77.34
2023-10-26T08:57:25.748Z,77.99
2023-10-26T08:59:54.107Z,76.77
2023-10-26T09:02:22.203Z,76.79
2023-10-26T09:05:05.242Z,76.26
2023-10-26T09:07:33.787Z,79.98
2023-10-26T09:10:02.133Z,76.27
2023-10-26T09:12:30.481Z,76.21
2023-10-26T09:15:02.467Z,75.89
2023-10-26T09:17:31.837Z,75.33
2023-10-26T09:20:00.431Z,76.28
2023-10-26T09:22:40.227Z,77.42
2023-10-26T09:25:09.421Z,74.84
2023-10-26T09:27:37.961Z,77.38
2023-10-26T09:30:08.005Z,76.88
2023-10-26T09:32:38.175Z,76.64
2023-10-26T09:35:07.157Z,75.55
2023-10-26T09:37:51.826Z,75.86
2023-10-26T09:40:21.298Z,76.10
2023-10-26T09:42:49.900Z,75.97
2023-10-26T09:45:20.226Z,74.90
2023-10-26T09:47:48.856Z,75.71
2023-10-26T09:50:17.355Z,76.12
2023-10-26T09:52:46.044Z,75.33
2023-10-26T09:55:16.008Z,75.98
2023-10-26T09:57:50.933Z,75.65
2023-10-26T10:00:21.043Z,74.73
2023-10-26T10:03:10.977Z,74.32
2023-10-26T10:05:39.590Z,74.90
2023-10-26T10:08:08.247Z,73.87
2023-10-26T10:10:38.359Z,74.35
2023-10-26T10:13:06.915Z,75.35
2023-10-26T10:15:42.489Z,73.39
2023-10-26T10:18:11.513Z,72.60
2023-10-26T10:20:42.606Z,73.64
2023-10-26T10:23:29.026Z,75.01
2023-10-26T10:26:23.537Z,74.15
2023-10-26T10:28:54.537Z,73.84
2023-10-26T10:31:25.117Z,74.02
2023-10-26T10:34:04.580Z,73.30
2023-10-26T10:37:10.290Z,73.91
2023-10-26T10:39:39.267Z,73.70
2023-10-26T10:42:13.147Z,74.05
2023-10-26T10:44:43.549Z,74.38
2023-10-26T10:47:12.112Z,73.62
2023-10-26T10:49:40.361Z,74.43
2023-10-26T10:52:14.874Z,73.83
2023-10-26T10:54:59.728Z,75.33
2023-10-26T10:57:34.291Z,74.21
2023-10-26T11:00:02.490Z,74.83
2023-10-26T11:02:30.812Z,74.26
2023-10-26T11:05:12.580Z,73.69
2023-10-26T11:07:44.910Z,74.81
2023-10-26T11:10:13.241Z,74.51
2023-10-26T11:12:51.404Z,73.54
2023-10-26T11:15:19.998Z,74.79
2023-10-26T11:17:49.431Z,73.76
2023-10-26T11:20:35.894Z,73.99
2023-10-26T11:23:04.263Z,73.45
2023-10-26T11:25:32.396Z,73.31
2023-10-26T11:28:01.956Z,73.68
2023-10-26T11:30:31.613Z,74.12
2023-10-26T11:33:00.129Z,74.89
2023-10-26T11:35:28.473Z,74.54
2023-10-26T11:37:57.742Z,74.17
2023-10-26T11:40:33.276Z,74.19
2023-10-26T11:43:04.565Z,72.45
2023-10-26T11:45:49.114Z,72.76
2023-10-26T11:48:28.152Z,73.53
2023-10-26T11:50:56.607Z,73.12
2023-10-26T11:53:27.388Z,74.24
2023-10-26T11:55:55.582Z,72.13
2023-10-26T11:58:25.480Z,71.63
2023-10-26T12:00:53.651Z,72.00
2023-10-26T12:03:22.547Z,71.27
2023-10-26T12:05:51.050Z,71.37
2023-10-26T12:08:19.409Z,71.52
2023-10-26T12:10:47.798Z,72.12
2023-10-26T12:13:16.189Z,71.36
2023-10-26T12:15:45.833Z,71.75
2023-10-26T12:18:14.162Z,72.46
2023-10-26T12:20:42.534Z,71.34
2023-10-26T12:23:10.856Z,71.02
2023-10-26T12:25:39.457Z,71.25
2023-10-26T12:28:19.151Z,71.39
2023-10-26T12:30:52.678Z,71.13
2023-10-26T12:33:21.914Z,70.39
2023-10-26T12:35:51.748Z,71.06
2023-10-26T12:38:20.900Z,70.49
2023-10-26T12:40:49.675Z,71.33
2023-10-26T12:43:17.964Z,71.10
2023-10-26T12:45:46.359Z,70.67
2023-10-26T12:48:16.039Z,73.14
2023-10-26T12:50:44.440Z,70.60
2023-10-26T12:53:13.569Z,70.11
2023-10-26T12:55:41.859Z,72.04
2023-10-26T12:58:10.252Z,70.60
2023-10-26T13:00:38.484Z,70.10
2023-10-26T13:03:06.892Z,70.88
2023-10-26T13:05:36.334Z,70.12
2023-10-26T13:08:05.131Z,71.98
2023-10-26T13:10:33.761Z,70.63
2023-10-26T13:13:02.157Z,69.83
2023-10-26T13:15:31.204Z,69.88
2023-10-26T13:18:07.128Z,70.22
2023-10-26T13:20:37.263Z,69.68
2023-10-26T13:23:05.306Z,69.30
2023-10-26T13:25:33.662Z,70.78
2023-10-26T13:28:02.516Z,70.37
2023-10-26T13:30:30.792Z,69.47
2023-10-26T13:32:59.259Z,70.12
2023-10-26T13:35:30.978Z,71.44
2023-10-26T13:38:00.612Z,69.75
2023-10-26T13:40:29.568Z,68.86
2023-10-26T13:42:57.817Z,69.48
2023-10-26T13:45:26.010Z,68.39
2023-10-26T13:47:54.532Z,68.96
2023-10-26T13:50:23.054Z,70.51
2023-10-26T13:52:51.333Z,69.11
2023-10-26T13:55:20.796Z,67.74
2023-10-26T13:57:49.224Z,68.82
2023-10-26T14:00:18.273Z,68.12
2023-10-26T14:02:46.599Z,68.80
2023-10-26T14:05:30.234Z,69.22
2023-10-26T14:07:59.666Z,69.20
2023-10-26T14:10:29.852Z,69.40
2023-10-26T14:12:58.310Z,69.88
2023-10-26T14:15:26.649Z,70.28
2023-10-26T14:17:56.338Z,69.94
2023-10-26T14:20:24.489Z,72.16
2023-10-26T14:22:52.477Z,70.33
2023-10-26T14:25:20.822Z,70.16
2023-10-26T14:27:51.518Z,70.32
2023-10-26T14:30:20.021Z,70.41
2023-10-26T14:32:48.381Z,72.18
2023-10-26T14:35:16.756Z,70.77
2023-10-26T14:37:50.443Z,70.04
2023-10-26T14:40:19.429Z,69.07
2023-10-26T14:42:50.377Z,69.77
2023-10-26T14:45:18.714Z,70.37
2023-10-26T14:47:47.501Z,70.53
2023-10-26T14:50:15.748Z,70.17
2023-10-26T14:52:43.930Z,69.83
2023-10-26T14:55:12.489Z,70.16
2023-10-26T14:57:40.945Z,70.12
2023-10-26T15:00:11.732Z,70.21
2023-10-26T15:02:40.382Z,70.53
2023-10-26T15:05:10.284Z,69.92
2023-10-26T15:07:38.505Z,72.04
2023-10-26T15:10:24.062Z,70.42
2023-10-26T15:12:55.258Z,71.08
2023-10-26T15:15:25.570Z,70.73
2023-10-26T15:17:54.350Z,70.11
2023-10-26T15:20:22.736Z,71.19
2023-10-26T15:22:51.101Z,70.20
2023-10-26T15:25:19.280Z,70.41
2023-10-26T15:27:47.857Z,70.21
2023-10-26T15:30:16.364Z,70.17
2023-10-26T15:32:46.153Z,68.46
2023-10-26T15:35:14.477Z,69.42
2023-10-26T15:37:42.580Z,67.88
2023-10-26T15:40:13.914Z,68.01
2023-10-26T15:42:42.469Z,67.99
2023-10-26T15:45:12.745Z,69.15
2023-10-26T15:47:41.239Z,69.20
2023-10-26T15:50:12.280Z,67.35
2023-10-26T15:52:40.722Z,67.63
2023-10-26T15:55:09.941Z,67.93
2023-10-26T15:57:38.933Z,67.77
2023-10-26T16:00:10.842Z,67.44
2023-10-26T16:02:39.890Z,69.51
2023-10-26T16:05:08.703Z,68.00
2023-10-26T16:07:38.286Z,66.83
2023-10-26T16:10:07.411Z,67.60
2023-10-26T16:12:35.619Z,67.01
2023-10-26T16:15:04.166Z,67.45
2023-10-26T16:17:33.774Z,67.18
2023-10-26T16:20:02.480Z,69.59
2023-10-26T16:22:31.481Z,67.35
2023-10-26T16:25:01.800Z,67.40
2023-10-26T16:27:30.584Z,70.44
2023-10-26T16:29:59.553Z,67.10
2023-10-26T16:32:28.840Z,65.19
2023-10-26T16:34:57.720Z,65.89
2023-10-26T16:37:26.107Z,65.97
2023-10-26T16:39:55.480Z,66.02
2023-10-26T16:42:25.514Z,66.48
2023-10-26T16:44:54.624Z,66.78
2023-10-26T16:47:23.811Z,68.03
2023-10-26T16:49:53.260Z,68.47
2023-10-26T16:52:22.457Z,68.54
2023-10-26T16:54:51.404Z,68.26
2023-10-26T16:57:21.208Z,70.74
2023-10-26T16:59:51.194Z,69.16
2023-10-26T17:02:20.122Z,67.72
2023-10-26T17:04:52.594Z,69.21
2023-10-26T17:07:22.255Z,68.45
2023-10-26T17:09:51.953Z,68.27
2023-10-26T17:12:23.453Z,69.87
2023-10-26T17:14:56.770Z,70.46
2023-10-26T17:17:26.432Z,69.98
2023-10-26T17:19:57.311Z,69.09
2023-10-26T17:22:26.270Z,68.65
2023-10-26T17:24:56.180Z,68.58
2023-10-26T17:27:27.384Z,69.06
2023-10-26T17:29:59.177Z,68.30
2023-10-26T17:32:29.176Z,68.41
2023-10-26T17:34:58.887Z,69.10
2023-10-26T17:37:28.231Z,67.79
2023-10-26T17:39:57.601Z,68.07
2023-10-26T17:42:28.306Z,68.09
2023-10-26T17:44:59.824Z,67.25
2023-10-26T17:47:29.663Z,68.26
2023-10-26T17:50:00.951Z,69.28
2023-10-26T17:52:31.622Z,67.15
2023-10-26T17:55:03.459Z,69.90
2023-10-26T17:57:32.665Z,70.45
2023-10-26T18:00:04.384Z,69.86
2023-10-26T18:02:36.194Z,66.48
2023-10-26T18:05:07.011Z,68.99
2023-10-26T18:07:38.445Z,69.18
2023-10-26T18:10:09.229Z,68.05
2023-10-26T18:12:39.330Z,67.17
2023-10-26T18:15:13.321Z,68.94
2023-10-26T18:17:42.577Z,66.93
2023-10-26T18:20:15.008Z,67.26
2023-10-26T18:22:46.780Z,69.33
2023-10-26T18:25:17.280Z,66.71
2023-10-26T18:27:46.873Z,67.08
2023-10-26T18:30:19.450Z,66.59
2023-10-26T18:32:50.139Z,69.52
2023-10-26T18:35:20.356Z,70.48
2023-10-26T18:37:50.511Z,68.14
2023-10-26T18:40:21.297Z,68.69
2023-10-26T18:42:50.747Z,69.27
2023-10-26T18:45:22.176Z,72.89
2023-10-26T18:47:53.618Z,68.39
2023-10-26T18:50:23.777Z,68.94
2023-10-26T18:52:54.108Z,71.48
2023-10-26T18:55:26.627Z,71.07
2023-10-26T18:57:57.813Z,73.73
2023-10-26T19:00:30.500Z,73.11
2023-10-26T19:03:03.179Z,72.74
2023-10-26T19:05:32.277Z,74.59
2023-10-26T19:08:02.983Z,74.30
2023-10-26T19:10:35.046Z,74.49
2023-10-26T19:13:05.494Z,76.73
2023-10-26T19:15:38.512Z,77.82
2023-10-26T19:18:08.256Z,76.43
2023-10-26T19:20:39.828Z,76.52
2023-10-26T19:23:10.456Z,77.25
2023-10-26T19:25:42.865Z,76.80
2023-10-26T19:28:13.499Z,77.29
2023-10-26T19:30:45.593Z,76.92
2023-10-26T19:33:18.532Z,78.88
2023-10-26T19:35:49.303Z,78.30
2023-10-26T19:38:19.343Z,76.09
2023-10-26T19:40:49.165Z,78.68
2023-10-26T19:43:19.309Z,78.43
2023-10-26T19:45:54.710Z,76.43
2023-10-26T19:48:24.438Z,78.19
2023-10-26T19:50:54.213Z,75.51
2023-10-26T19:53:24.731Z,76.38
2023-10-26T19:55:54.909Z,77.09
2023-10-26T19:58:25.454Z,75.04
2023-10-26T20:00:57.956Z,76.10
2023-10-26T20:03:28.223Z,75.04
2023-10-26T20:05:58.869Z,74.13
2023-10-26T20:08:28.950Z,78.49
2023-10-26T20:10:59.505Z,77.48
2023-10-26T20:13:30.926Z,75.57
2023-10-26T20:16:02.619Z,77.96
2023-10-26T20:18:40.954Z,78.24
2023-10-26T20:21:12.576Z,76.98
2023-10-26T20:23:42.147Z,76.72
2023-10-26T20:26:12.398Z,78.98
2023-10-26T20:28:41.887Z,80.21
2023-10-26T20:31:12.586Z,78.06
2023-10-26T20:33:43.089Z,78.60
2023-10-26T20:36:13.122Z,77.01
2023-10-26T20:38:42.433Z,75.35
2023-10-26T20:41:10.908Z,76.64
2023-10-26T20:43:39.821Z,78.29
2023-10-26T20:46:09.114Z,80.12
2023-10-26T20:48:42.715Z,77.29
2023-10-26T20:51:12.425Z,75.09
2023-10-26T20:53:41.240Z,76.83
2023-10-26T20:56:10.359Z,78.63
2023-10-26T20:58:38.757Z,77.61
2023-10-26T21:01:11.388Z,75.74
2023-10-26T21:03:41.918Z,75.89
2023-10-26T21:06:13.573Z,75.65
2023-10-26T21:08:43.994Z,78.11
2023-10-26T21:11:16.251Z,76.46
2023-10-26T21:13:44.451Z,76.66
2023-10-26T21:16:12.963Z,79.94
2023-10-26T21:18:42.984Z,79.06
2023-10-26T21:21:11.881Z,76.97
2023-10-26T21:23:40.260Z,76.30
2023-10-26T21:26:09.294Z,77.62
2023-10-26T21:28:39.956Z,78.51
2023-10-26T21:31:08.343Z,77.19
2023-10-26T21:33:36.886Z,76.88
2023-10-26T21:36:12.326Z,79.56
2023-10-26T21:38:40.683Z,79.12
2023-10-26T21:41:09.498Z,76.71
2023-10-26T21:43:37.823Z,78.49
2023-10-26T21:46:07.512Z,77.72
2023-10-26T21:48:36.300Z,80.12
2023-10-26T21:51:09.810Z,78.55
2023-10-26T21:53:39.697Z,79.48
2023-10-26T21:56:08.642Z,76.85
2023-10-26T21:58:36.925Z,78.87
2023-10-26T22:01:08.247Z,78.06
2023-10-26T22:03:36.676Z,77.55
2023-10-26T22:06:05.056Z,80.57
2023-10-26T22:08:34.564Z,77.70
2023-10-26T22:11:02.885Z,77.94
2023-10-26T22:13:31.461Z,76.99
2023-10-26T22:15:59.978Z,79.65
2023-10-26T22:18:36.069Z,81.48
2023-10-26T22:21:04.393Z,81.27
2023-10-26T22:23:34.147Z,81.74
2023-10-26T22:26:02.765Z,79.42
2023-10-26T22:28:31.782Z,81.19
2023-10-26T22:31:01.704Z,79.44
2023-10-26T22:33:36.252Z,78.36
2023-10-26T22:36:05.124Z,78.13
2023-10-26T22:38:34.647Z,81.11
2023-10-26T22:41:04.754Z,79.62
2023-10-26T22:43:33.018Z,80.76
2023-10-26T22:46:01.319Z,79.99
2023-10-26T22:48:29.794Z,79.18
2023-10-26T22:50:59.498Z,81.12
2023-10-26T22:53:27.984Z,79.84
2023-10-26T22:55:57.618Z,80.18
2023-10-26T22:58:26.188Z,79.94
2023-10-26T23:00:54.582Z,82.88
2023-10-26T23:03:23.375Z,80.65
2023-10-26T23:05:59.089Z,82.52
2023-10-26T23:08:28.220Z,81.43
2023-10-26T23:10:57.661Z,80.30
2023-10-26T23:13:26.011Z,82.40
2023-10-26T23:15:54.471Z,81.86
2023-10-26T23:18:22.885Z,81.29
2023-10-26T23:20:51.292Z,80.60
2023-10-26T23:23:19.608Z,79.73
2023-10-26T23:25:48.027Z,80.08
2023-10-26T23:28:17.863Z,79.66
2023-10-26T23:30:46.347Z,80.93
2023-10-26T23:33:15.079Z,82.59
2023-10-26T23:35:43.345Z,79.39
2023-10-26T23:38:11.332Z,81.16
2023-10-26T23:40:39.651Z,82.54
2023-10-26T23:43:07.744Z,81.57
2023-10-26T23:45:37.165Z,81.49
2023-10-26T23:48:05.903Z,81.93
2023-10-26T23:50:34.308Z,82.94
2023-10-26T23:53:02.576Z,82.04
2023-10-26T23:55:30.943Z,80.54
2023-10-26T23:57:59.027Z,82.08
